ADDS METAR Data INFO
IDs: Format: Raw Decoded Include TAF

Data at: 2351 UTC 23 Feb 2018

KVQQ 232350Z 12007KT 10SM CLR 23/18 A3030
KVQQ 232250Z 15007KT 10SM CLR 25/19 A3030
KVQQ 232150Z 07010KT 10SM CLR 26/19 A3029
KVQQ 232050Z 07014KT 10SM BKN033 BKN040 27/20 A3029
KVQQ 231950Z 10013KT 10SM BKN045 28/20 A3031
KVQQ 231850Z 09010KT 10SM BKN037 28/20 A3032
KVQQ 231750Z VRB04KT 10SM BKN038 28/20 A3035
KVQQ 231650Z 14010KT 10SM SCT029 BKN038 27/21 A3039
KVQQ 231550Z 15010KT 10SM BKN023 25/21 A3041
KVQQ 231450Z 15006KT 10SM BKN022 24/22 A3041
KVQQ 231350Z VRB04KT 10SM CLR 21/21 A3041
KVQQ 231250Z 00000KT 6SM BR CLR 14/14 A3040
KVQQ 231150Z 00000KT 6SM BR BCFG CLR 13/13 A3039
KVQQ 231035Z AUTO 00000KT M1/4SM FG VV000 14/14 A3037 RMK AO2
KVQQ 231015Z AUTO 00000KT 1 1/2SM BR SCT028 SCT037 SCT042 13/13 A3036 RMK AO2 VIS 1/2V4
KVQQ 230955Z AUTO 00000KT 7SM SCT029 BKN037 BKN043 14/14 A3036 RMK AO2
KVQQ 230935Z AUTO 00000KT 1/4SM FG BKN020 BKN029 OVC045 14/14 A3036 RMK AO2
KVQQ 230915Z AUTO 00000KT 4SM BR FEW020 FEW029 SCT038 13/13 A3036 RMK AO2
KVQQ 230855Z AUTO 00000KT 1 1/4SM BR SCT036 13/13 A3036 RMK AO2
KVQQ 230835Z AUTO 00000KT 1/4SM FG BKN029 BKN035 14/14 A3037 RMK AO2
KVQQ 230815Z AUTO 1 1/2SM BR SCT029 BKN036 14/14 A3037 RMK AO2 VIS 1 1/4V2
KVQQ 230755Z AUTO 00000KT 3/4SM BR VV005 14/14 A3037 RMK AO2
KVQQ 230735Z AUTO 00000KT 3/4SM BR VV005 14/14 A3037 RMK AO2
KVQQ 230715Z AUTO 00000KT 1/4SM FG VV002 15/15 A3037 RMK AO2
KVQQ 230655Z AUTO 00000KT 1/2SM BR BKN017 15/15 A3038 RMK AO2
KVQQ 230635Z AUTO 00000KT 1/2SM FG BKN018 15/15 A3038 RMK AO2
KVQQ 230615Z AUTO 00000KT 3SM BR FEW033 FEW039 16/16 A3039 RMK AO2
KVQQ 230555Z AUTO 00000KT 4SM BR FEW018 SCT032 BKN041 16/16 A3039 RMK AO2
KVQQ 230535Z AUTO 00000KT 6SM BR FEW019 SCT035 BKN042 18/18 A3039 RMK AO2
KVQQ 230515Z AUTO 00000KT 10SM FEW034 SCT041 19/19 A3039 RMK AO2
KVQQ 230455Z AUTO 00000KT 10SM FEW034 FEW041 19/19 A3040 RMK AO2
KVQQ 230435Z AUTO 00000KT 9SM FEW037 18/18 A3040 RMK AO2
KVQQ 230415Z AUTO 00000KT 8SM FEW029 FEW037 FEW044 18/18 A3040 RMK AO2
KVQQ 230355Z AUTO 00000KT 8SM SCT021 SCT032 SCT041 18/18 A3041 RMK AO2
KVQQ 230350Z 09004KT 10SM SCT021 18/18 A3040
KVQQ 230335Z AUTO 00000KT 9SM BKN025 BKN033 BKN048 19/19 A3041 RMK AO2
KVQQ 230315Z AUTO 00000KT 8SM BKN026 OVC034 18/18 A3041 RMK AO2
KVQQ 230250Z 09005KT 10SM FEW024 17/17 A3041
KVQQ 230150Z 09005KT 10SM FEW030 20/19 A3040
KVQQ 230050Z 09005KT 10SM CLR 21/19 A3039
KVQQ 222350Z 09007KT 10SM CLR 22/19 A3038
KVQQ 222250Z 09012KT 10SM CLR 24/19 A3037
KVQQ 222150Z 08011KT 10SM BKN039 BKN046 26/19 A3036
KVQQ 222124Z 09010KT 10SM BKN039 BKN043 27/18 A3036
KVQQ 222050Z 08007KT 10SM BKN042 28/18 A3036
KVQQ 221950Z 12008KT 10SM BKN049 28/17 A3036
KVQQ 221850Z 14010KT 10SM BKN048 28/18 A3039
KVQQ 221750Z 24009KT 10SM BKN033 27/18 A3042
KVQQ 221650Z 16009KT 10SM BKN033 26/20 A3044
KVQQ 221550Z 14009KT 10SM BKN027 26/21 A3045
KVQQ 221450Z VRB05KT 10SM FEW050 23/22 A3046
KVQQ 221350Z 00000KT 10SM CLR 20/20 A3045
KVQQ 221250Z 00000KT 7SM CLR 15/15 A3043